Time;durP1;ratioP1;P1;durP2;ratioP2;P2;SDS_P1;SDS_P2;PMS_P1;PMS_P2;Temp;Humidity;BMP_temperature;BMP_pressure;BME280_temperature;BME280_humidity;BME280_pressure;Samples;Min_cycle;Max_cycle;Signal;HPM_P1;HPM_P2
2023/03/02 00:01:30;;;;;;;;;;;;;;;;;;5066974;28;19924;-57
2023/03/02 00:03:57;;;;;;;;;;;;;;;;;;5066943;28;19967;-52
2023/03/02 00:06:23;;;;;;;;;;;;;;;;;;5066758;28;19925;-57
2023/03/02 00:08:49;;;;;;;;;;;;;;;;;;5066864;28;19925;-56
2023/03/02 00:11:15;;;;;;;;;;;;;;;;;;5066866;28;19948;-57
2023/03/02 00:13:41;;;;;;;;;;;;;;;;;;5065399;28;20145;-54
2023/03/02 00:16:07;;;;;;;;;;;;;;;;;;5066036;28;20330;-52
2023/03/02 00:18:33;;;;;;;;;;;;;;;;;;5066253;28;19931;-56
2023/03/02 00:20:59;;;;;;;;;;;;;;;;;;5066692;28;19924;-51
2023/03/02 00:23:26;;;;;;;;;;;;;;;;;;5066392;28;19947;-54
2023/03/02 00:25:52;;;;;;;;;;;;;;;;;;5067096;28;19920;-50
2023/03/02 00:28:18;;;;;;;;;;;;;;;;;;5065832;28;19932;-55
2023/03/02 00:30:44;;;;;;;;;;;;;;;;;;5066313;28;19924;-57
2023/03/02 00:33:10;;;;;;;;;;;;;;;;;;5066525;28;20416;-56
2023/03/02 00:35:36;;;;;;;;;;;;;;;;;;5048454;28;19931;-57
2023/03/02 00:38:02;;;;;;;;;;;;;;;;;;5056608;28;20317;-57
2023/03/02 00:40:28;;;;;;;;;;;;;;;;;;5044300;28;19931;-57
2023/03/02 00:42:54;;;;;;;;;;;;;;;;;;5065493;28;19924;-50
2023/03/02 00:45:20;;;;;;;;;;;;;;;;;;5067041;28;20370;-56
2023/03/02 00:47:46;;;;;;;;;;;;;;;;;;5066398;28;19924;-55
2023/03/02 00:50:12;;;;;;;;;;;;;;;;;;5066503;28;20985;-57
2023/03/02 00:52:38;;;;;;;;;;;;;;;;;;5066050;28;19932;-56
2023/03/02 00:55:04;;;;;;;;;;;;;;;;;;5066737;28;19925;-55
2023/03/02 00:57:30;;;;;;;;;;;;;;;;;;5064809;28;20286;-57
2023/03/02 00:59:56;;;;;;;;;;;;;;;;;;5066507;28;20265;-56
2023/03/02 01:02:22;;;;;;;;;;;;;;;;;;5066424;28;20259;-51
2023/03/02 01:04:48;;;;;;;;;;;;;;;;;;5067175;28;19931;-57
2023/03/02 01:07:14;;;;;;;;;;;;;;;;;;5066193;28;19924;-57
2023/03/02 01:09:40;;;;;;;;;;;;;;;;;;5066001;28;20357;-53
2023/03/02 01:12:08;;;;;;;;;;;;;;;;;;5065749;28;20384;-57
2023/03/02 01:14:34;;;;;;;;;;;;;;;;;;5065309;28;19928;-55
2023/03/02 01:17:00;;;;;;;;;;;;;;;;;;5066377;28;19925;-57
2023/03/02 01:19:26;;;;;;;;;;;;;;;;;;5065669;28;19924;-55
2023/03/02 01:21:52;;;;;;;;;;;;;;;;;;5066159;28;19929;-53
2023/03/02 01:24:18;;;;;;;;;;;;;;;;;;5066605;28;19971;-55
2023/03/02 01:26:44;;;;;;;;;;;;;;;;;;5065274;28;19920;-57
2023/03/02 01:29:10;;;;;;;;;;;;;;;;;;5068937;28;19983;-53
2023/03/02 01:31:36;;;;;;;;;;;;;;;;;;5051639;28;19943;-57
2023/03/02 01:34:02;;;;;;;;;;;;;;;;;;5069870;28;19951;-55
2023/03/02 01:36:28;;;;;;;;;;;;;;;;;;5069060;28;19939;-58
2023/03/02 01:38:54;;;;;;;;;;;;;;;;;;5055830;28;19924;-56
2023/03/02 01:41:20;;;;;;;;;;;;;;;;;;5069349;28;20378;-57
2023/03/02 01:43:46;;;;;;;;;;;;;;;;;;5051204;28;19963;-57
2023/03/02 01:46:12;;;;;;;;;;;;;;;;;;5069509;28;20410;-56
2023/03/02 01:48:38;;;;;;;;;;;;;;;;;;5069312;28;19935;-56
2023/03/02 01:51:04;;;;;;;;;;;;;;;;;;5069140;28;19931;-56
2023/03/02 01:53:30;;;;;;;;;;;;;;;;;;5069613;28;19924;-57
2023/03/02 01:55:56;;;;;;;;;;;;;;;;;;5068882;28;20011;-56
2023/03/02 01:58:22;;;;;;;;;;;;;;;;;;5068171;28;19924;-51
2023/03/02 02:00:48;;;;;;;;;;;;;;;;;;5069004;28;20258;-57
2023/03/02 02:03:14;;;;;;;;;;;;;;;;;;5069029;28;19964;-57
2023/03/02 02:05:40;;;;;;;;;;;;;;;;;;5050850;28;19950;-52
2023/03/02 02:08:06;;;;;;;;;;;;;;;;;;5069002;28;19928;-57
2023/03/02 02:10:32;;;;;;;;;;;;;;;;;;5068653;28;20467;-55
2023/03/02 02:12:58;;;;;;;;;;;;;;;;;;5137811;22;19933;-57
2023/03/02 02:15:24;;;;;;;;;;;;;;;;;;5044046;28;20553;-57
2023/03/02 02:17:50;;;;;;;;;;;;;;;;;;5049281;28;19928;-57
2023/03/02 02:20:18;;;;;;;;;;;;;;;;;;5049197;28;19936;-56
2023/03/02 02:22:44;;;;;;;;;;;;;;;;;;5048789;28;19932;-56
2023/03/02 02:25:10;;;;;;;;;;;;;;;;;;5049622;28;19932;-53
2023/03/02 02:27:36;;;;;;;;;;;;;;;;;;5048807;28;20316;-57
2023/03/02 02:30:02;;;;;;;;;;;;;;;;;;5049247;28;19979;-51
2023/03/02 02:32:29;;;;;;;;;;;;;;;;;;5049078;28;19933;-57
2023/03/02 02:34:55;;;;;;;;;;;;;;;;;;5049506;28;19924;-56
2023/03/02 02:37:21;;;;;;;;;;;;;;;;;;5049098;28;20020;-52
2023/03/02 02:39:47;;;;;;;;;;;;;;;;;;5048877;28;20366;-57
2023/03/02 02:42:13;;;;;;;;;;;;;;;;;;5048229;28;19953;-54
2023/03/02 02:44:39;;;;;;;;;;;;;;;;;;5048880;28;20599;-57
2023/03/02 02:47:05;;;;;;;;;;;;;;;;;;5048721;28;19924;-56
2023/03/02 02:49:32;;;;;;;;;;;;;;;;;;5047785;28;19968;-57
2023/03/02 02:51:58;;;;;;;;;;;;;;;;;;5047276;28;19966;-57
2023/03/02 02:54:24;;;;;;;;;;;;;;;;;;5047779;28;20020;-52
2023/03/02 02:56:50;;;;;;;;;;;;;;;;;;5048336;28;19925;-55
2023/03/02 02:59:16;;;;;;;;;;;;;;;;;;5047000;28;19937;-55
2023/03/02 03:01:42;;;;;;;;;;;;;;;;;;5047617;28;19932;-55
2023/03/02 03:04:08;;;;;;;;;;;;;;;;;;5048569;28;20390;-54
2023/03/02 03:06:37;;;;;;;;;;;;;;;;;;5047648;28;20023;-55
2023/03/02 03:09:03;;;;;;;;;;;;;;;;;;5048386;28;20537;-57
2023/03/02 03:11:29;;;;;;;;;;;;;;;;;;5048123;28;19931;-56
2023/03/02 03:13:55;;;;;;;;;;;;;;;;;;5047724;28;19924;-57
2023/03/02 03:16:21;;;;;;;;;;;;;;;;;;5048114;28;19925;-56
2023/03/02 03:18:47;;;;;;;;;;;;;;;;;;5048136;28;19951;-58
2023/03/02 03:21:13;;;;;;;;;;;;;;;;;;5046869;28;20366;-54
2023/03/02 03:23:39;;;;;;;;;;;;;;;;;;5046973;28;19928;-57
2023/03/02 03:26:05;;;;;;;;;;;;;;;;;;5047070;28;19925;-53
2023/03/02 03:28:31;;;;;;;;;;;;;;;;;;5047308;28;19925;-58
2023/03/02 03:30:57;;;;;;;;;;;;;;;;;;5047993;28;19932;-56
2023/03/02 03:33:23;;;;;;;;;;;;;;;;;;5047812;28;20290;-58
2023/03/02 03:35:49;;;;;;;;;;;;;;;;;;5047983;28;20365;-58
2023/03/02 03:38:15;;;;;;;;;;;;;;;;;;5048123;28;20004;-57
2023/03/02 03:40:41;;;;;;;;;;;;;;;;;;5047754;28;20016;-56
2023/03/02 03:43:07;;;;;;;;;;;;;;;;;;5046302;28;19924;-56
2023/03/02 03:45:33;;;;;;;;;;;;;;;;;;5047215;28;20297;-57
2023/03/02 03:47:59;;;;;;;;;;;;;;;;;;5047836;28;19928;-56
2023/03/02 03:50:25;;;;;;;;;;;;;;;;;;5047089;28;19978;-56
2023/03/02 03:52:51;;;;;;;;;;;;;;;;;;5047279;28;20417;-56
2023/03/02 03:55:18;;;;;;;;;;;;;;;;;;5044161;28;19925;-56
2023/03/02 03:57:44;;;;;;;;;;;;;;;;;;5031751;28;19948;-56
2023/03/02 04:00:10;;;;;;;;;;;;;;;;;;5047590;28;20302;-56
2023/03/02 04:02:36;;;;;;;;;;;;;;;;;;5047090;28;19925;-56
2023/03/02 04:05:05;;;;;;;;;;;;;;;;;;5047042;28;19928;-56
2023/03/02 04:07:31;;;;;;;;;;;;;;;;;;5047234;28;19931;-56
2023/03/02 04:10:02;;;;;;;;;;;;;;;;;;5047678;28;19925;-51
2023/03/02 04:12:28;;;;;;;;;;;;;;;;;;5046072;28;19924;-56
2023/03/02 04:14:54;;;;;;;;;;;;;;;;;;5047285;28;20083;-57
2023/03/02 04:17:20;;;;;;;;;;;;;;;;;;5047669;28;19929;-56
2023/03/02 04:19:46;;;;;;;;;;;;;;;;;;5046182;28;19932;-56
2023/03/02 04:22:14;;;;;;;;;;;;;;;;;;5047200;28;20302;-56
2023/03/02 04:24:40;;;;;;;;;;;;;;;;;;5046409;28;19944;-57
2023/03/02 04:27:06;;;;;;;;;;;;;;;;;;5046414;28;19925;-52
2023/03/02 04:29:32;;;;;;;;;;;;;;;;;;5046830;28;19940;-56
2023/03/02 04:31:57;;;;;;;;;;;;;;;;;;5046864;28;19928;-50
2023/03/02 04:34:24;;;;;;;;;;;;;;;;;;5046267;28;19929;-55
2023/03/02 04:36:50;;;;;;;;;;;;;;;;;;5047418;28;19932;-56
2023/03/02 04:39:16;;;;;;;;;;;;;;;;;;5046659;28;19928;-56
2023/03/02 04:41:42;;;;;;;;;;;;;;;;;;5046534;28;20484;-56
2023/03/02 04:44:08;;;;;;;;;;;;;;;;;;5046093;28;19971;-57
2023/03/02 04:46:34;;;;;;;;;;;;;;;;;;5046373;28;19925;-57
2023/03/02 04:49:00;;;;;;;;;;;;;;;;;;5046718;28;19931;-54
2023/03/02 04:51:26;;;;;;;;;;;;;;;;;;5046719;28;19924;-56
2023/03/02 04:53:52;;;;;;;;;;;;;;;;;;5046654;28;19932;-51
2023/03/02 04:56:18;;;;;;;;;;;;;;;;;;5040111;28;19929;-55
2023/03/02 04:58:44;;;;;;;;;;;;;;;;;;5043296;28;20433;-54
2023/03/02 05:01:11;;;;;;;;;;;;;;;;;;5046731;28;19929;-57
2023/03/02 05:03:37;;;;;;;;;;;;;;;;;;5049017;28;19925;-57
2023/03/02 05:06:03;;;;;;;;;;;;;;;;;;5050558;28;19979;-57
2023/03/02 05:08:29;;;;;;;;;;;;;;;;;;5050216;28;19929;-56
2023/03/02 05:10:55;;;;;;;;;;;;;;;;;;5050436;28;19960;-49
2023/03/02 05:13:21;;;;;;;;;;;;;;;;;;5022255;28;19932;-56
2023/03/02 05:15:47;;;;;;;;;;;;;;;;;;5047159;28;19939;-53
2023/03/02 05:18:13;;;;;;;;;;;;;;;;;;5050176;28;19940;-57
2023/03/02 05:20:39;;;;;;;;;;;;;;;;;;5050008;28;19971;-55
2023/03/02 05:23:05;;;;;;;;;;;;;;;;;;5050696;28;19924;-57
2023/03/02 05:25:31;;;;;;;;;;;;;;;;;;5049885;28;19924;-54
2023/03/02 05:27:57;;;;;;;;;;;;;;;;;;5049626;28;19931;-57
2023/03/02 05:30:23;;;;;;;;;;;;;;;;;;5050286;28;20285;-53
2023/03/02 05:32:49;;;;;;;;;;;;;;;;;;5050044;28;20043;-57
2023/03/02 05:35:15;;;;;;;;;;;;;;;;;;5050114;28;20425;-55
2023/03/02 05:37:43;;;;;;;;;;;;;;;;;;5049760;28;19925;-57
2023/03/02 05:40:09;;;;;;;;;;;;;;;;;;5049861;28;19971;-56
2023/03/02 05:42:35;;;;;;;;;;;;;;;;;;5049056;28;19925;-57
2023/03/02 05:45:01;;;;;;;;;;;;;;;;;;5050042;28;19986;-55
2023/03/02 05:47:27;;;;;;;;;;;;;;;;;;5049287;28;20356;-57
2023/03/02 05:49:53;;;;;;;;;;;;;;;;;;5049819;28;19932;-56
2023/03/02 05:52:19;;;;;;;;;;;;;;;;;;5050404;28;19925;-57
2023/03/02 05:54:45;;;;;;;;;;;;;;;;;;5049562;28;20350;-57
2023/03/02 05:57:11;;;;;;;;;;;;;;;;;;5049003;28;19932;-57
2023/03/02 05:59:37;;;;;;;;;;;;;;;;;;5049657;28;20380;-57
2023/03/02 06:02:03;;;;;;;;;;;;;;;;;;5049297;28;20723;-50
2023/03/02 06:04:29;;;;;;;;;;;;;;;;;;5037742;28;20008;-58
2023/03/02 06:06:55;;;;;;;;;;;;;;;;;;5046330;28;20016;-53
2023/03/02 06:09:21;;;;;;;;;;;;;;;;;;5049409;28;19964;-57
2023/03/02 06:11:47;;;;;;;;;;;;;;;;;;5037496;28;19933;-56
2023/03/02 06:14:13;;;;;;;;;;;;;;;;;;5032051;28;19925;-57
2023/03/02 06:16:39;;;;;;;;;;;;;;;;;;5031086;28;19925;-56
2023/03/02 06:19:05;;;;;;;;;;;;;;;;;;5033100;28;19924;-57
2023/03/02 06:21:31;;;;;;;;;;;;;;;;;;5031044;28;19933;-56
2023/03/02 06:23:57;;;;;;;;;;;;;;;;;;5030577;28;19925;-57
2023/03/02 06:26:23;;;;;;;;;;;;;;;;;;5034012;28;19986;-56
2023/03/02 06:28:49;;;;;;;;;;;;;;;;;;5040107;28;19979;-57
2023/03/02 06:31:15;;;;;;;;;;;;;;;;;;5032357;28;19929;-56
2023/03/02 06:33:41;;;;;;;;;;;;;;;;;;5036946;28;19948;-51
2023/03/02 06:36:07;;;;;;;;;;;;;;;;;;5034925;28;20263;-56
2023/03/02 06:38:33;;;;;;;;;;;;;;;;;;5044662;28;19932;-56
2023/03/02 06:41:00;;;;;;;;;;;;;;;;;;5047652;28;19933;-55
2023/03/02 06:43:26;;;;;;;;;;;;;;;;;;5042115;28;20040;-56
2023/03/02 06:45:52;;;;;;;;;;;;;;;;;;5041238;28;20036;-55
2023/03/02 06:48:17;;;;;;;;;;;;;;;;;;5040482;28;20023;-57
2023/03/02 06:50:43;;;;;;;;;;;;;;;;;;5037165;28;20372;-57
2023/03/02 06:53:09;;;;;;;;;;;;;;;;;;5034240;28;19978;-57
2023/03/02 06:55:35;;;;;;;;;;;;;;;;;;5047999;28;19925;-57
2023/03/02 06:58:01;;;;;;;;;;;;;;;;;;5037403;28;20393;-56
2023/03/02 07:00:27;;;;;;;;;;;;;;;;;;5039211;28;19925;-54
2023/03/02 07:02:53;;;;;;;;;;;;;;;;;;5045038;28;19932;-57
2023/03/02 07:05:19;;;;;;;;;;;;;;;;;;5040958;28;20378;-56
2023/03/02 07:07:46;;;;;;;;;;;;;;;;;;5042384;28;19924;-55
2023/03/02 07:10:12;;;;;;;;;;;;;;;;;;5038656;28;19995;-56
2023/03/02 07:12:38;;;;;;;;;;;;;;;;;;5032955;28;20365;-55
2023/03/02 07:15:07;;;;;;;;;;;;;;;;;;5033391;28;20386;-56
2023/03/02 07:17:33;;;;;;;;;;;;;;;;;;5035132;28;19925;-55
2023/03/02 07:19:59;;;;;;;;;;;;;;;;;;5032355;28;19941;-56
2023/03/02 07:22:25;;;;;;;;;;;;;;;;;;5036617;28;20397;-56
2023/03/02 07:24:51;;;;;;;;;;;;;;;;;;5032863;28;19971;-57
2023/03/02 07:27:17;;;;;;;;;;;;;;;;;;5035536;28;19979;-55
2023/03/02 07:29:43;;;;;;;;;;;;;;;;;;5032526;28;20542;-58
2023/03/02 07:32:09;;;;;;;;;;;;;;;;;;5034119;28;19925;-57
2023/03/02 07:34:35;;;;;;;;;;;;;;;;;;5034304;28;19925;-57
2023/03/02 07:37:01;;;;;;;;;;;;;;;;;;5032337;28;20382;-56
2023/03/02 07:39:27;;;;;;;;;;;;;;;;;;5036375;28;20476;-58
2023/03/02 07:41:53;;;;;;;;;;;;;;;;;;5031605;28;19925;-56
2023/03/02 07:44:19;;;;;;;;;;;;;;;;;;5036181;28;19924;-53
2023/03/02 07:46:45;;;;;;;;;;;;;;;;;;5031801;28;19925;-54
2023/03/02 07:49:11;;;;;;;;;;;;;;;;;;5033866;28;20559;-56
2023/03/02 07:51:37;;;;;;;;;;;;;;;;;;5034169;28;20024;-56
2023/03/02 07:54:03;;;;;;;;;;;;;;;;;;5031944;28;19929;-54
2023/03/02 07:56:29;;;;;;;;;;;;;;;;;;5035084;28;19940;-57
2023/03/02 07:58:55;;;;;;;;;;;;;;;;;;5031439;28;19929;-56
2023/03/02 08:01:21;;;;;;;;;;;;;;;;;;5035938;28;20279;-57
2023/03/02 08:03:47;;;;;;;;;;;;;;;;;;5031766;28;19929;-57
2023/03/02 08:06:13;;;;;;;;;;;;;;;;;;5039932;28;20279;-57
2023/03/02 08:08:39;;;;;;;;;;;;;;;;;;5047336;28;19925;-57
2023/03/02 08:11:05;;;;;;;;;;;;;;;;;;5047592;28;19921;-57
2023/03/02 08:13:31;;;;;;;;;;;;;;;;;;5045715;28;20015;-57
2023/03/02 08:15:57;;;;;;;;;;;;;;;;;;5047028;28;20026;-51
2023/03/02 08:18:23;;;;;;;;;;;;;;;;;;5047152;28;19942;-57
2023/03/02 08:20:49;;;;;;;;;;;;;;;;;;5047612;28;20584;-50
2023/03/02 08:23:15;;;;;;;;;;;;;;;;;;5047008;28;19925;-55
2023/03/02 08:25:41;;;;;;;;;;;;;;;;;;5046958;28;20012;-57
2023/03/02 08:28:07;;;;;;;;;;;;;;;;;;5045853;28;20328;-56
2023/03/02 08:30:33;;;;;;;;;;;;;;;;;;5046821;28;19940;-56
2023/03/02 08:32:59;;;;;;;;;;;;;;;;;;5046716;28;19925;-54
2023/03/02 08:35:25;;;;;;;;;;;;;;;;;;5046818;28;19925;-57
2023/03/02 08:37:52;;;;;;;;;;;;;;;;;;5046379;28;20293;-55
2023/03/02 08:40:18;;;;;;;;;;;;;;;;;;5047722;28;19948;-57
2023/03/02 08:42:45;;;;;;;;;;;;;;;;;;5045537;28;20354;-54
2023/03/02 08:45:11;;;;;;;;;;;;;;;;;;5046981;28;19935;-56
2023/03/02 08:47:37;;;;;;;;;;;;;;;;;;5046521;28;19925;-54
2023/03/02 08:50:03;;;;;;;;;;;;;;;;;;5046864;28;19932;-57
2023/03/02 08:52:29;;;;;;;;;;;;;;;;;;5046573;28;20290;-57
2023/03/02 08:54:55;;;;;;;;;;;;;;;;;;5046861;28;19932;-52
2023/03/02 08:57:21;;;;;;;;;;;;;;;;;;5046076;28;19928;-55
2023/03/02 08:59:47;;;;;;;;;;;;;;;;;;5046498;28;19932;-53
2023/03/02 09:02:13;;;;;;;;;;;;;;;;;;5046925;28;20398;-57
2023/03/02 09:04:39;;;;;;;;;;;;;;;;;;5046414;28;19925;-55
2023/03/02 09:07:05;;;;;;;;;;;;;;;;;;5046373;28;20417;-55
2023/03/02 09:09:31;;;;;;;;;;;;;;;;;;5028758;28;19928;-57
2023/03/02 09:11:57;;;;;;;;;;;;;;;;;;5045735;28;20023;-55
2023/03/02 09:14:23;;;;;;;;;;;;;;;;;;5045898;28;20290;-57
2023/03/02 09:16:51;;;;;;;;;;;;;;;;;;5046899;28;19971;-55
2023/03/02 09:19:17;;;;;;;;;;;;;;;;;;5046780;28;20448;-57
2023/03/02 09:21:43;;;;;;;;;;;;;;;;;;5046484;28;20375;-56
2023/03/02 09:24:09;;;;;;;;;;;;;;;;;;5046632;28;19951;-56
2023/03/02 09:26:37;;;;;;;;;;;;;;;;;;5045244;28;19994;-55
2023/03/02 09:29:03;;;;;;;;;;;;;;;;;;5046332;28;20004;-57
2023/03/02 09:31:29;;;;;;;;;;;;;;;;;;5046034;28;20346;-53
2023/03/02 09:33:55;;;;;;;;;;;;;;;;;;5046510;28;19931;-57
2023/03/02 09:36:21;;;;;;;;;;;;;;;;;;5046586;28;19925;-52
2023/03/02 09:38:47;;;;;;;;;;;;;;;;;;5046856;28;19925;-57
2023/03/02 09:41:13;;;;;;;;;;;;;;;;;;5045017;28;20445;-55
2023/03/02 09:43:40;;;;;;;;;;;;;;;;;;5046386;28;20016;-57
2023/03/02 09:46:06;;;;;;;;;;;;;;;;;;5045977;28;19972;-55
2023/03/02 09:48:32;;;;;;;;;;;;;;;;;;5047223;28;19965;-57
2023/03/02 09:50:58;;;;;;;;;;;;;;;;;;5050279;28;19980;-55
2023/03/02 09:53:24;;;;;;;;;;;;;;;;;;5049668;28;20446;-58
2023/03/02 09:55:50;;;;;;;;;;;;;;;;;;5049562;28;19925;-55
2023/03/02 09:58:16;;;;;;;;;;;;;;;;;;5049516;28;20337;-57
2023/03/02 10:00:42;;;;;;;;;;;;;;;;;;5049573;28;19929;-56
2023/03/02 10:03:09;;;;;;;;;;;;;;;;;;5049753;28;19924;-57
2023/03/02 10:05:35;;;;;;;;;;;;;;;;;;5049589;28;19964;-58
2023/03/02 10:08:01;;;;;;;;;;;;;;;;;;5049401;28;19972;-55
2023/03/02 10:10:27;;;;;;;;;;;;;;;;;;5048794;28;19972;-55
2023/03/02 10:12:53;;;;;;;;;;;;;;;;;;5031056;28;20381;-57
2023/03/02 10:15:19;;;;;;;;;;;;;;;;;;5050025;28;19944;-57
2023/03/02 10:17:45;;;;;;;;;;;;;;;;;;5049009;28;20080;-57
2023/03/02 10:20:11;;;;;;;;;;;;;;;;;;5049679;28;19925;-57
2023/03/02 10:22:37;;;;;;;;;;;;;;;;;;5048828;28;20062;-57
2023/03/02 10:25:03;;;;;;;;;;;;;;;;;;5048853;28;20491;-57
2023/03/02 10:27:29;;;;;;;;;;;;;;;;;;5047882;28;20000;-57
2023/03/02 10:29:55;;;;;;;;;;;;;;;;;;5049646;28;20131;-57
2023/03/02 10:32:21;;;;;;;;;;;;;;;;;;5049499;28;19929;-57
2023/03/02 10:34:48;;;;;;;;;;;;;;;;;;5049476;28;19925;-56
2023/03/02 10:37:14;;;;;;;;;;;;;;;;;;5049058;28;20007;-56
2023/03/02 10:39:40;;;;;;;;;;;;;;;;;;5048057;28;19951;-57
2023/03/02 10:42:06;;;;;;;;;;;;;;;;;;5048181;28;19979;-52
2023/03/02 10:44:32;;;;;;;;;;;;;;;;;;5048725;28;19921;-57
2023/03/02 10:46:58;;;;;;;;;;;;;;;;;;5049309;28;19975;-54
2023/03/02 10:49:25;;;;;;;;;;;;;;;;;;5048668;28;20583;-57
2023/03/02 10:51:51;;;;;;;;;;;;;;;;;;5049223;28;19928;-56
2023/03/02 10:54:17;;;;;;;;;;;;;;;;;;5048437;28;19928;-57
2023/03/02 10:56:43;;;;;;;;;;;;;;;;;;5047544;28;20333;-56
2023/03/02 10:59:09;;;;;;;;;;;;;;;;;;5048895;28;19921;-51
2023/03/02 11:01:35;;;;;;;;;;;;;;;;;;5047941;28;19929;-54
2023/03/02 11:04:01;;;;;;;;;;;;;;;;;;5048574;28;19928;-53
2023/03/02 11:06:27;;;;;;;;;;;;;;;;;;5048478;28;19925;-57
2023/03/02 11:08:53;;;;;;;;;;;;;;;;;;5047817;28;20008;-56
2023/03/02 11:11:19;;;;;;;;;;;;;;;;;;5047835;28;19925;-57
2023/03/02 11:13:45;;;;;;;;;;;;;;;;;;5047799;28;19925;-56
2023/03/02 11:16:11;;;;;;;;;;;;;;;;;;5048271;28;20444;-57
2023/03/02 11:18:36;;;;;;;;;;;;;;;;;;5048141;28;19932;-56
2023/03/02 11:21:03;;;;;;;;;;;;;;;;;;5048091;28;19998;-56
2023/03/02 11:23:29;;;;;;;;;;;;;;;;;;5047252;28;20016;-57
2023/03/02 11:25:55;;;;;;;;;;;;;;;;;;5047463;28;20024;-54
2023/03/02 11:28:24;;;;;;;;;;;;;;;;;;5048349;28;20389;-56
2023/03/02 11:30:50;;;;;;;;;;;;;;;;;;5048725;28;20031;-55
2023/03/02 11:33:16;;;;;;;;;;;;;;;;;;5048020;28;20055;-57
2023/03/02 11:35:42;;;;;;;;;;;;;;;;;;5047824;28;20370;-57
2023/03/02 11:38:08;;;;;;;;;;;;;;;;;;5047155;28;19925;-57
2023/03/02 11:40:34;;;;;;;;;;;;;;;;;;5047740;28;19925;-57
2023/03/02 11:43:03;;;;;;;;;;;;;;;;;;5046917;28;20377;-57
2023/03/02 11:45:29;;;;;;;;;;;;;;;;;;5047548;28;20054;-54
2023/03/02 11:47:55;;;;;;;;;;;;;;;;;;5047720;28;19975;-56
2023/03/02 11:50:21;;;;;;;;;;;;;;;;;;5047815;28;19933;-55
2023/03/02 11:52:47;;;;;;;;;;;;;;;;;;5037089;28;19921;-52
2023/03/02 11:55:13;;;;;;;;;;;;;;;;;;5031077;28;19924;-57
2023/03/02 11:57:39;;;;;;;;;;;;;;;;;;5045044;28;20298;-56
2023/03/02 12:00:05;;;;;;;;;;;;;;;;;;5037359;28;20350;-56
2023/03/02 12:02:31;;;;;;;;;;;;;;;;;;5046465;28;19931;-56
2023/03/02 12:04:57;;;;;;;;;;;;;;;;;;5032891;28;19921;-57
2023/03/02 12:07:23;;;;;;;;;;;;;;;;;;5032007;28;19931;-57
2023/03/02 12:09:49;;;;;;;;;;;;;;;;;;5040682;28;19937;-57
2023/03/02 12:12:15;;;;;;;;;;;;;;;;;;5025254;28;19925;-56
2023/03/02 12:14:42;;;;;;;;;;;;;;;;;;5032564;28;19932;-57
2023/03/02 12:17:08;;;;;;;;;;;;;;;;;;5038163;28;19971;-56
2023/03/02 12:19:34;;;;;;;;;;;;;;;;;;5030718;28;19983;-55
2023/03/02 12:22:01;;;;;;;;;;;;;;;;;;5026771;28;19991;-56
2023/03/02 12:24:27;;;;;;;;;;;;;;;;;;5029005;28;20382;-56
2023/03/02 12:26:53;;;;;;;;;;;;;;;;;;5010587;28;19954;-55
2023/03/02 12:29:19;;;;;;;;;;;;;;;;;;5031785;28;19925;-56
2023/03/02 12:31:45;;;;;;;;;;;;;;;;;;5028983;28;19941;-50
2023/03/02 12:34:11;;;;;;;;;;;;;;;;;;5012898;28;19955;-53
2023/03/02 12:36:37;;;;;;;;;;;;;;;;;;5031438;28;19925;-55
2023/03/02 12:39:03;;;;;;;;;;;;;;;;;;5036143;28;20473;-56
2023/03/02 12:41:29;;;;;;;;;;;;;;;;;;5033321;28;19932;-54
2023/03/02 12:43:55;;;;;;;;;;;;;;;;;;5034068;28;20008;-56
2023/03/02 12:46:21;;;;;;;;;;;;;;;;;;5036234;28;19928;-54
2023/03/02 12:48:47;;;;;;;;;;;;;;;;;;5032617;28;20059;-53
2023/03/02 12:51:13;;;;;;;;;;;;;;;;;;5037471;28;19932;-57
2023/03/02 12:53:40;;;;;;;;;;;;;;;;;;5032320;28;19940;-55
2023/03/02 12:56:06;;;;;;;;;;;;;;;;;;5018321;28;19932;-54
2023/03/02 12:58:32;;;;;;;;;;;;;;;;;;5032985;28;19926;-57
2023/03/02 13:00:58;;;;;;;;;;;;;;;;;;5033998;28;19987;-55
2023/03/02 13:03:25;;;;;;;;;;;;;;;;;;5035075;28;19928;-57
2023/03/02 13:05:51;;;;;;;;;;;;;;;;;;5036244;28;19924;-56
2023/03/02 13:08:17;;;;;;;;;;;;;;;;;;5046996;28;19935;-57
2023/03/02 13:10:43;;;;;;;;;;;;;;;;;;5045083;28;19932;-56
2023/03/02 13:13:09;;;;;;;;;;;;;;;;;;5042115;28;20019;-55
2023/03/02 13:15:35;;;;;;;;;;;;;;;;;;5034024;28;20007;-56
2023/03/02 13:18:03;;;;;;;;;;;;;;;;;;5038066;28;20281;-55
2023/03/02 13:20:29;;;;;;;;;;;;;;;;;;5029925;28;19932;-56
2023/03/02 13:22:55;;;;;;;;;;;;;;;;;;5041679;28;19925;-55
2023/03/02 13:25:21;;;;;;;;;;;;;;;;;;5031914;28;19928;-56
2023/03/02 13:27:47;;;;;;;;;;;;;;;;;;5034923;28;20302;-55
2023/03/02 13:30:13;;;;;;;;;;;;;;;;;;5034506;28;19956;-55
2023/03/02 13:32:40;;;;;;;;;;;;;;;;;;5038375;28;19940;-49
2023/03/02 13:35:06;;;;;;;;;;;;;;;;;;5033635;28;19925;-56
2023/03/02 13:37:32;;;;;;;;;;;;;;;;;;5029920;28;19928;-55
2023/03/02 13:39:58;;;;;;;;;;;;;;;;;;5042028;28;20325;-56
2023/03/02 13:42:24;;;;;;;;;;;;;;;;;;5034869;28;19947;-55
2023/03/02 13:44:50;;;;;;;;;;;;;;;;;;5033618;28;20514;-56
2023/03/02 13:47:16;;;;;;;;;;;;;;;;;;5042862;28;19932;-56
2023/03/02 13:49:42;;;;;;;;;;;;;;;;;;5039299;28;19928;-51
2023/03/02 13:52:08;;;;;;;;;;;;;;;;;;5032894;28;20008;-53
2023/03/02 13:54:34;;;;;;;;;;;;;;;;;;5048567;28;19935;-53
2023/03/02 13:57:01;;;;;;;;;;;;;;;;;;5047926;28;20007;-56
2023/03/02 13:59:27;;;;;;;;;;;;;;;;;;5048104;28;19924;-56
2023/03/02 14:01:53;;;;;;;;;;;;;;;;;;5044434;28;19931;-56
2023/03/02 14:04:21;;;;;;;;;;;;;;;;;;5032855;28;19975;-56
2023/03/02 14:06:47;;;;;;;;;;;;;;;;;;5042178;28;19975;-56
2023/03/02 14:09:13;;;;;;;;;;;;;;;;;;5049178;28;19932;-56
2023/03/02 14:11:39;;;;;;;;;;;;;;;;;;5047713;28;20290;-56
2023/03/02 14:14:06;;;;;;;;;;;;;;;;;;5036011;28;20428;-56
2023/03/02 14:16:34;;;;;;;;;;;;;;;;;;5035337;28;19935;-52
2023/03/02 14:19:00;;;;;;;;;;;;;;;;;;5015393;28;19925;-56
2023/03/02 14:21:26;;;;;;;;;;;;;;;;;;5040363;28;19925;-54
2023/03/02 14:23:53;;;;;;;;;;;;;;;;;;5037766;28;19932;-56
2023/03/02 14:26:19;;;;;;;;;;;;;;;;;;5032084;28;20286;-55
2023/03/02 14:28:45;;;;;;;;;;;;;;;;;;5032009;28;20066;-56
2023/03/02 14:31:11;;;;;;;;;;;;;;;;;;5045086;28;20445;-57
2023/03/02 14:33:37;;;;;;;;;;;;;;;;;;5031571;28;20534;-56
2023/03/02 14:36:03;;;;;;;;;;;;;;;;;;5036066;28;20413;-56
2023/03/02 14:38:29;;;;;;;;;;;;;;;;;;5031498;28;19921;-52
2023/03/02 14:40:55;;;;;;;;;;;;;;;;;;5033297;28;19979;-56
2023/03/02 14:43:22;;;;;;;;;;;;;;;;;;5032395;28;19929;-53
2023/03/02 14:45:48;;;;;;;;;;;;;;;;;;5014583;28;19972;-56
2023/03/02 14:48:14;;;;;;;;;;;;;;;;;;5033690;28;19964;-54
2023/03/02 14:50:40;;;;;;;;;;;;;;;;;;5030939;28;19925;-52
2023/03/02 14:53:06;;;;;;;;;;;;;;;;;;5030874;28;19932;-56
2023/03/02 14:55:32;;;;;;;;;;;;;;;;;;5040161;28;19935;-55
2023/03/02 14:57:58;;;;;;;;;;;;;;;;;;5028434;28;20011;-55
2023/03/02 15:00:24;;;;;;;;;;;;;;;;;;5034346;28;20011;-56
2023/03/02 15:02:50;;;;;;;;;;;;;;;;;;5039847;28;20453;-56
2023/03/02 15:05:16;;;;;;;;;;;;;;;;;;5036819;28;19935;-56
2023/03/02 15:07:42;;;;;;;;;;;;;;;;;;5033997;28;19929;-56
2023/03/02 15:10:08;;;;;;;;;;;;;;;;;;5047528;28;20283;-56
2023/03/02 15:12:34;;;;;;;;;;;;;;;;;;5047763;28;20032;-50
2023/03/02 15:15:01;;;;;;;;;;;;;;;;;;5030337;28;19924;-57
2023/03/02 15:17:27;;;;;;;;;;;;;;;;;;5048019;28;20015;-54
2023/03/02 15:19:53;;;;;;;;;;;;;;;;;;5047914;28;20012;-55
2023/03/02 15:22:19;;;;;;;;;;;;;;;;;;5047560;28;20015;-55
2023/03/02 15:24:45;;;;;;;;;;;;;;;;;;5047709;28;20388;-54
2023/03/02 15:27:11;;;;;;;;;;;;;;;;;;5047682;28;19924;-56
2023/03/02 15:29:37;;;;;;;;;;;;;;;;;;5047386;28;19971;-55
2023/03/02 15:32:03;;;;;;;;;;;;;;;;;;5048354;28;19952;-56
2023/03/02 15:34:29;;;;;;;;;;;;;;;;;;5047270;28;19932;-55
2023/03/02 15:36:55;;;;;;;;;;;;;;;;;;5047072;28;19925;-56
2023/03/02 15:39:21;;;;;;;;;;;;;;;;;;5039354;28;20006;-52
2023/03/02 15:41:47;;;;;;;;;;;;;;;;;;5033388;28;20107;-56
2023/03/02 15:44:13;;;;;;;;;;;;;;;;;;5037828;28;20409;-54
2023/03/02 15:46:39;;;;;;;;;;;;;;;;;;5034395;28;19921;-56
2023/03/02 15:49:05;;;;;;;;;;;;;;;;;;5035925;28;20008;-56
2023/03/02 15:51:31;;;;;;;;;;;;;;;;;;5036580;28;19921;-56
2023/03/02 15:53:59;;;;;;;;;;;;;;;;;;5034244;28;21360;-56
2023/03/02 15:56:26;;;;;;;;;;;;;;;;;;5038432;28;20162;-56
2023/03/02 15:58:52;;;;;;;;;;;;;;;;;;5033757;28;19932;-54
2023/03/02 16:01:18;;;;;;;;;;;;;;;;;;5038994;28;20016;-56
2023/03/02 16:03:45;;;;;;;;;;;;;;;;;;5034305;28;19961;-52
2023/03/02 16:06:12;;;;;;;;;;;;;;;;;;5018617;28;20012;-55
2023/03/02 16:08:38;;;;;;;;;;;;;;;;;;5022880;28;19932;-54
2023/03/02 16:11:04;;;;;;;;;;;;;;;;;;5045490;28;19925;-55
2023/03/02 16:13:30;;;;;;;;;;;;;;;;;;5001944;28;19983;-55
2023/03/02 16:15:56;;;;;;;;;;;;;;;;;;5037391;28;19925;-55
2023/03/02 16:18:22;;;;;;;;;;;;;;;;;;5042081;28;20019;-54
2023/03/02 16:20:48;;;;;;;;;;;;;;;;;;5041708;28;19976;-56
2023/03/02 16:23:14;;;;;;;;;;;;;;;;;;5040507;28;19968;-56
2023/03/02 16:25:42;;;;;;;;;;;;;;;;;;5042027;28;20393;-55
2023/03/02 16:28:08;;;;;;;;;;;;;;;;;;5043063;28;20313;-55
2023/03/02 16:30:34;;;;;;;;;;;;;;;;;;5039593;28;19971;-53
2023/03/02 16:33:00;;;;;;;;;;;;;;;;;;5043735;28;19925;-56
2023/03/02 16:35:26;;;;;;;;;;;;;;;;;;5046618;28;19975;-56
2023/03/02 16:37:52;;;;;;;;;;;;;;;;;;5042261;28;19971;-54